createdAt,value
2023-11-23T00:01:18.177Z,0.84
2023-11-23T00:03:44.591Z,0.86
2023-11-23T00:06:10.992Z,0.91
2023-11-23T00:08:37.426Z,0.87
2023-11-23T00:11:04.195Z,0.77
2023-11-23T00:13:30.548Z,0.80
2023-11-23T00:15:56.877Z,0.80
2023-11-23T00:18:23.382Z,0.75
2023-11-23T00:20:49.887Z,0.71
2023-11-23T00:23:16.272Z,0.67
2023-11-23T00:25:42.718Z,0.65
2023-11-23T00:28:09.393Z,0.67
2023-11-23T00:30:35.827Z,0.59
2023-11-23T00:33:02.273Z,0.60
2023-11-23T00:35:28.661Z,0.57
2023-11-23T00:37:55.069Z,0.57
2023-11-23T00:40:21.391Z,0.55
2023-11-23T00:42:47.722Z,0.54
2023-11-23T00:45:15.966Z,0.47
2023-11-23T00:47:43.236Z,0.47
2023-11-23T00:50:10.083Z,0.45
2023-11-23T00:52:36.488Z,0.41
2023-11-23T00:55:05.842Z,0.37
2023-11-23T00:57:33.342Z,0.39
2023-11-23T01:00:01.300Z,0.42
2023-11-23T01:02:28.603Z,0.35
2023-11-23T01:04:55.138Z,0.36
2023-11-23T01:07:21.550Z,0.32
2023-11-23T01:09:47.881Z,0.30
2023-11-23T01:12:15.139Z,0.31
2023-11-23T01:14:41.748Z,0.30
2023-11-23T01:17:08.155Z,0.30
2023-11-23T01:19:34.496Z,0.35
2023-11-23T01:22:00.930Z,0.36
2023-11-23T01:24:27.409Z,0.31
2023-11-23T01:26:53.858Z,0.26
2023-11-23T01:29:20.295Z,0.29
2023-11-23T01:31:46.659Z,0.28
2023-11-23T01:34:13.109Z,0.28
2023-11-23T01:36:39.517Z,0.27
2023-11-23T01:39:06.199Z,0.25
2023-11-23T01:41:32.696Z,0.26
2023-11-23T01:43:59.049Z,0.30
2023-11-23T01:46:25.436Z,0.27
2023-11-23T01:48:54.377Z,0.24
2023-11-23T01:51:21.155Z,0.26
2023-11-23T01:53:47.695Z,0.23
2023-11-23T01:56:15.195Z,0.30
2023-11-23T01:58:41.805Z,0.21
2023-11-23T02:01:08.246Z,0.32
2023-11-23T02:03:35.171Z,0.26
2023-11-23T02:06:01.795Z,0.18
2023-11-23T02:08:28.393Z,0.20
2023-11-23T02:10:55.150Z,0.22
2023-11-23T02:13:21.810Z,0.21
2023-11-23T02:15:48.868Z,0.20
2023-11-23T02:18:15.385Z,0.19
2023-11-23T02:20:47.869Z,0.13
2023-11-23T02:23:14.334Z,0.25
2023-11-23T02:25:40.782Z,0.26
2023-11-23T02:28:07.997Z,0.20
2023-11-23T02:30:34.529Z,0.20
2023-11-23T02:33:05.310Z,0.18
2023-11-23T02:35:31.798Z,0.08
2023-11-23T02:37:58.193Z,0.06
2023-11-23T02:40:24.639Z,0.09
2023-11-23T02:42:51.048Z,0.09
2023-11-23T02:45:17.551Z,0.11
2023-11-23T02:47:44.069Z,0.06
2023-11-23T02:50:12.704Z,0.07
2023-11-23T02:52:39.763Z,0.06
2023-11-23T02:55:06.771Z,0.05
2023-11-23T02:57:33.142Z,0.16
2023-11-23T02:59:59.547Z,0.14
2023-11-23T03:02:26.239Z,0.19
2023-11-23T03:04:55.097Z,0.07
2023-11-23T03:07:21.597Z,0.11
2023-11-23T03:09:47.952Z,0.10
2023-11-23T03:12:14.361Z,0.10
2023-11-23T03:14:40.848Z,0.07
2023-11-23T03:17:08.780Z,0.13
2023-11-23T03:19:35.224Z,0.12
2023-11-23T03:22:01.652Z,0.15
2023-11-23T03:24:28.126Z,0.10
2023-11-23T03:26:54.527Z,0.12
2023-11-23T03:29:20.992Z,0.13
2023-11-23T03:31:48.657Z,0.18
2023-11-23T03:34:15.227Z,0.20
2023-11-23T03:36:41.662Z,0.19
2023-11-23T03:39:08.320Z,0.32
2023-11-23T03:41:35.303Z,0.33
2023-11-23T03:44:01.991Z,0.38
2023-11-23T03:46:28.401Z,0.42
2023-11-23T03:48:55.276Z,0.43
2023-11-23T03:51:22.259Z,0.46
2023-11-23T03:53:48.702Z,0.49
2023-11-23T03:56:19.398Z,0.52
2023-11-23T03:58:45.894Z,0.53
2023-11-23T04:01:12.365Z,0.57
2023-11-23T04:03:45.462Z,0.59
2023-11-23T04:06:12.764Z,0.67
2023-11-23T04:08:42.000Z,0.60
2023-11-23T04:11:10.668Z,0.71
2023-11-23T04:13:37.108Z,0.73
2023-11-23T04:16:03.817Z,0.71
2023-11-23T04:18:30.143Z,0.84
2023-11-23T04:20:56.629Z,0.84
2023-11-23T04:23:23.073Z,0.83
2023-11-23T04:25:49.654Z,0.86
2023-11-23T04:28:15.974Z,0.86
2023-11-23T04:30:42.374Z,0.88
2023-11-23T04:33:08.799Z,0.82
2023-11-23T04:35:35.875Z,0.84
2023-11-23T04:38:02.265Z,0.87
2023-11-23T04:40:28.648Z,0.89
2023-11-23T04:42:54.978Z,0.91
2023-11-23T04:45:21.878Z,0.89
2023-11-23T04:47:48.388Z,0.93
2023-11-23T04:50:14.886Z,0.95
2023-11-23T04:52:41.325Z,0.95
2023-11-23T04:55:08.725Z,1.01
2023-11-23T04:57:35.166Z,1.01
2023-11-23T05:00:01.649Z,1.04
2023-11-23T05:02:28.092Z,1.05
2023-11-23T05:04:54.511Z,1.04
2023-11-23T05:07:21.714Z,1.06
2023-11-23T05:09:48.077Z,1.06
2023-11-23T05:12:14.516Z,1.10
2023-11-23T05:14:40.947Z,1.16
2023-11-23T05:17:07.532Z,1.13
2023-11-23T05:19:41.839Z,1.19
2023-11-23T05:22:09.435Z,1.17
2023-11-23T05:24:36.028Z,1.16
2023-11-23T05:27:02.478Z,1.17
2023-11-23T05:29:28.826Z,1.23
2023-11-23T05:31:55.175Z,1.20
2023-11-23T05:34:21.576Z,1.20
2023-11-23T05:36:47.960Z,1.25
2023-11-23T05:39:14.502Z,1.23
2023-11-23T05:41:40.890Z,1.27
2023-11-23T05:44:08.155Z,1.33
2023-11-23T05:46:34.963Z,1.38
2023-11-23T05:49:01.750Z,1.39
2023-11-23T05:51:29.249Z,1.32
2023-11-23T05:53:55.975Z,1.40
2023-11-23T05:56:22.422Z,1.49
2023-11-23T05:58:49.452Z,1.44
2023-11-23T06:01:16.081Z,1.46
2023-11-23T06:03:43.108Z,1.47
2023-11-23T06:06:17.856Z,1.46
2023-11-23T06:08:44.204Z,1.44
2023-11-23T06:11:10.576Z,1.48
2023-11-23T06:13:36.936Z,1.45
2023-11-23T06:16:03.661Z,1.45
2023-11-23T06:18:30.074Z,1.39
2023-11-23T06:20:56.695Z,1.45
2023-11-23T06:23:23.893Z,1.41
2023-11-23T06:25:50.217Z,1.41
2023-11-23T06:28:16.625Z,1.42
2023-11-23T06:30:46.207Z,1.46
2023-11-23T06:33:13.234Z,1.38
2023-11-23T06:35:39.708Z,1.45
2023-11-23T06:38:06.022Z,1.46
2023-11-23T06:40:35.235Z,1.47
2023-11-23T06:43:06.087Z,1.49
2023-11-23T06:45:33.423Z,1.45
2023-11-23T06:47:59.963Z,1.41
2023-11-23T06:50:26.373Z,1.43
2023-11-23T06:52:52.754Z,1.39
2023-11-23T06:55:19.779Z,1.40
2023-11-23T06:57:48.813Z,1.47
2023-11-23T07:00:28.406Z,1.46
2023-11-23T07:02:58.096Z,1.51
2023-11-23T07:05:25.637Z,1.59
2023-11-23T07:07:53.047Z,1.59
2023-11-23T07:10:20.756Z,1.63
2023-11-23T07:12:49.271Z,1.64
2023-11-23T07:15:15.957Z,1.68
2023-11-23T07:17:43.702Z,1.72
2023-11-23T07:20:13.075Z,1.75
2023-11-23T07:22:40.250Z,1.79
2023-11-23T07:25:10.169Z,1.82
2023-11-23T07:27:38.049Z,1.81
2023-11-23T07:30:10.219Z,1.83
2023-11-23T07:32:37.667Z,1.81
2023-11-23T07:35:05.352Z,1.79
2023-11-23T07:37:32.349Z,1.80
2023-11-23T07:39:58.846Z,1.79
2023-11-23T07:42:26.490Z,1.81
2023-11-23T07:44:53.237Z,1.83
2023-11-23T07:47:20.741Z,1.80
2023-11-23T07:49:47.077Z,1.88
2023-11-23T07:52:14.590Z,1.92
2023-11-23T07:54:40.991Z,1.98
2023-11-23T07:57:07.598Z,1.96
2023-11-23T07:59:37.290Z,2.03
2023-11-23T08:02:05.641Z,1.98
2023-11-23T08:04:32.643Z,2.02
2023-11-23T08:06:59.830Z,2.05
2023-11-23T08:09:26.233Z,2.04
2023-11-23T08:11:53.973Z,2.08
2023-11-23T08:14:21.249Z,2.10
2023-11-23T08:16:47.841Z,2.06
2023-11-23T08:19:17.478Z,2.04
2023-11-23T08:21:44.696Z,2.11
2023-11-23T08:24:12.001Z,2.12
2023-11-23T08:26:38.345Z,2.11
2023-11-23T08:29:06.403Z,2.17
2023-11-23T08:31:32.848Z,2.22
2023-11-23T08:33:59.635Z,2.24
2023-11-23T08:36:26.430Z,2.30
2023-11-23T08:38:52.891Z,2.34
2023-11-23T08:41:19.397Z,2.32
2023-11-23T08:43:47.923Z,2.38
2023-11-23T08:46:15.162Z,2.40
2023-11-23T08:48:42.542Z,2.50
2023-11-23T08:51:09.325Z,2.53
2023-11-23T08:53:35.978Z,2.59
2023-11-23T08:56:02.704Z,2.63
2023-11-23T08:58:29.239Z,2.70
2023-11-23T09:00:55.613Z,2.73
2023-11-23T09:03:22.529Z,2.79
2023-11-23T09:05:49.133Z,2.80
2023-11-23T09:08:15.862Z,2.89
2023-11-23T09:10:43.714Z,2.82
2023-11-23T09:13:10.234Z,2.96
2023-11-23T09:15:37.819Z,3.00
2023-11-23T09:18:07.517Z,3.05
2023-11-23T09:20:33.905Z,3.19
2023-11-23T09:23:03.533Z,3.24
2023-11-23T09:25:34.518Z,3.18
2023-11-23T09:28:01.230Z,3.30
2023-11-23T09:30:27.677Z,3.34
2023-11-23T09:32:54.526Z,3.35
2023-11-23T09:35:21.025Z,3.42
2023-11-23T09:37:47.455Z,3.52
2023-11-23T09:40:20.698Z,3.72
2023-11-23T09:42:50.489Z,3.96
2023-11-23T09:45:24.149Z,3.98
2023-11-23T09:47:52.896Z,3.90
2023-11-23T09:50:20.367Z,3.85
2023-11-23T09:52:48.123Z,3.87
2023-11-23T09:55:18.608Z,3.88
2023-11-23T09:57:46.063Z,3.86
2023-11-23T10:00:15.279Z,3.88
2023-11-23T10:02:46.561Z,3.83
2023-11-23T10:05:17.038Z,3.85
2023-11-23T10:07:44.413Z,3.92
2023-11-23T10:10:12.589Z,3.95
2023-11-23T10:12:40.297Z,3.99
2023-11-23T10:15:09.774Z,4.02
2023-11-23T10:17:36.246Z,4.04
2023-11-23T10:20:06.282Z,4.03
2023-11-23T10:22:32.690Z,4.07
2023-11-23T10:25:00.207Z,4.11
2023-11-23T10:27:26.682Z,4.16
2023-11-23T10:29:53.078Z,4.20
2023-11-23T10:32:21.653Z,4.23
2023-11-23T10:34:48.000Z,4.28
2023-11-23T10:37:17.603Z,4.36
2023-11-23T10:39:48.298Z,4.40
2023-11-23T10:42:16.363Z,4.51
2023-11-23T10:44:43.227Z,4.64
2023-11-23T10:47:12.465Z,4.72
2023-11-23T10:49:40.181Z,4.80
2023-11-23T10:52:09.856Z,4.89
2023-11-23T10:54:37.758Z,4.90
2023-11-23T10:57:08.589Z,5.04
2023-11-23T10:59:35.828Z,5.13
2023-11-23T11:02:03.506Z,5.21
2023-11-23T11:04:30.637Z,5.26
2023-11-23T11:06:58.548Z,5.36
2023-11-23T11:09:30.549Z,5.42
2023-11-23T11:11:58.028Z,5.41
2023-11-23T11:14:52.051Z,5.49
2023-11-23T11:17:18.388Z,5.53
2023-11-23T11:19:51.312Z,5.59
2023-11-23T11:22:18.354Z,5.60
2023-11-23T11:24:47.665Z,5.69
2023-11-23T11:27:15.121Z,5.72
2023-11-23T11:29:53.834Z,5.77
2023-11-23T11:32:21.834Z,5.78
2023-11-23T11:34:48.224Z,5.79
2023-11-23T11:37:15.804Z,5.87
2023-11-23T11:39:42.383Z,5.87
2023-11-23T11:42:11.339Z,5.88
2023-11-23T11:44:44.493Z,5.89
2023-11-23T11:47:12.032Z,5.90
2023-11-23T11:49:38.507Z,5.94
2023-11-23T11:52:10.056Z,5.97
2023-11-23T11:54:39.418Z,5.98
2023-11-23T11:57:12.884Z,5.98
2023-11-23T11:59:39.602Z,5.98
2023-11-23T12:02:06.978Z,5.99
2023-11-23T12:04:35.594Z,6.08
2023-11-23T12:07:02.415Z,6.18
2023-11-23T12:09:34.870Z,6.25
2023-11-23T12:12:11.271Z,6.33
2023-11-23T12:14:37.929Z,6.45
2023-11-23T12:17:11.781Z,6.52
2023-11-23T12:19:50.099Z,6.48
2023-11-23T12:22:20.962Z,6.62
2023-11-23T12:24:47.390Z,6.63
2023-11-23T12:27:15.768Z,6.65
2023-11-23T12:29:42.247Z,6.66
2023-11-23T12:32:08.657Z,6.66
2023-11-23T12:34:35.360Z,6.67
2023-11-23T12:37:02.272Z,6.69
2023-11-23T12:39:31.872Z,6.73
2023-11-23T12:41:58.361Z,6.76
2023-11-23T12:44:24.746Z,6.78
2023-11-23T12:46:51.384Z,6.79
2023-11-23T12:49:18.682Z,6.82
2023-11-23T12:51:45.806Z,6.84
2023-11-23T12:54:12.409Z,6.86
2023-11-23T12:56:39.101Z,6.86
2023-11-23T12:59:08.503Z,6.90
2023-11-23T13:01:39.667Z,6.89
2023-11-23T13:04:08.795Z,6.90
2023-11-23T13:06:39.045Z,6.89
2023-11-23T13:09:12.444Z,6.98
2023-11-23T13:11:38.832Z,6.99
2023-11-23T13:14:07.096Z,6.98
2023-11-23T13:16:33.450Z,6.99
2023-11-23T13:19:11.463Z,6.92
2023-11-23T13:21:46.335Z,6.92
2023-11-23T13:24:13.420Z,6.89
2023-11-23T13:26:39.925Z,6.91
2023-11-23T13:29:07.243Z,6.88
2023-11-23T13:31:34.757Z,6.84
2023-11-23T13:34:01.860Z,6.78
2023-11-23T13:36:35.334Z,6.76
2023-11-23T13:39:03.065Z,6.72
2023-11-23T13:41:29.754Z,6.68
2023-11-23T13:43:56.144Z,6.66
2023-11-23T13:46:22.792Z,6.63
2023-11-23T13:48:51.133Z,6.64
2023-11-23T13:51:22.643Z,6.64
2023-11-23T13:53:49.540Z,6.62
2023-11-23T13:56:16.025Z,6.62
2023-11-23T13:58:42.389Z,6.64
2023-11-23T14:01:08.820Z,6.63
2023-11-23T14:03:36.049Z,6.66
2023-11-23T14:06:06.048Z,6.68
2023-11-23T14:08:32.898Z,6.71
2023-11-23T14:10:59.310Z,6.73
2023-11-23T14:13:26.509Z,6.77
2023-11-23T14:15:54.204Z,6.81
2023-11-23T14:18:22.259Z,6.82
2023-11-23T14:20:50.745Z,6.87
2023-11-23T14:23:18.505Z,6.83
2023-11-23T14:25:44.929Z,6.82
2023-11-23T14:28:15.960Z,6.82
2023-11-23T14:30:46.510Z,6.78
2023-11-23T14:33:14.167Z,6.76
2023-11-23T14:35:42.573Z,6.74
2023-11-23T14:38:11.816Z,6.70
2023-11-23T14:40:38.246Z,6.66
2023-11-23T14:43:04.790Z,6.64
2023-11-23T14:45:33.183Z,6.63
2023-11-23T14:48:00.076Z,6.58
2023-11-23T14:50:30.158Z,6.59
2023-11-23T14:52:57.822Z,6.55
2023-11-23T14:55:24.308Z,6.54
2023-11-23T14:57:50.902Z,6.58
2023-11-23T15:00:17.905Z,6.62
2023-11-23T15:02:44.439Z,6.58
2023-11-23T15:05:13.658Z,6.58
2023-11-23T15:07:41.100Z,6.58
2023-11-23T15:10:13.130Z,6.65
2023-11-23T15:12:40.979Z,6.67
2023-11-23T15:15:08.147Z,6.63
2023-11-23T15:17:34.795Z,6.63
2023-11-23T15:20:01.238Z,6.70
2023-11-23T15:22:28.674Z,6.63
2023-11-23T15:25:02.855Z,6.65
2023-11-23T15:27:34.930Z,6.60
2023-11-23T15:30:01.459Z,6.56
2023-11-23T15:32:31.620Z,6.56
2023-11-23T15:34:58.050Z,6.52
2023-11-23T15:37:24.753Z,6.45
2023-11-23T15:39:51.169Z,6.45
2023-11-23T15:42:17.620Z,6.41
2023-11-23T15:44:44.065Z,6.39
2023-11-23T15:47:12.011Z,6.36
2023-11-23T15:49:38.664Z,6.36
2023-11-23T15:52:05.508Z,6.34
2023-11-23T15:54:31.895Z,6.32
2023-11-23T15:56:58.373Z,6.34
2023-11-23T15:59:25.659Z,6.35
2023-11-23T16:01:52.285Z,6.35
2023-11-23T16:04:18.988Z,6.43
2023-11-23T16:06:46.798Z,6.43
2023-11-23T16:09:13.277Z,6.45
2023-11-23T16:11:40.434Z,6.43
2023-11-23T16:14:11.268Z,6.41
2023-11-23T16:16:40.847Z,6.42
2023-11-23T16:19:07.686Z,6.37
2023-11-23T16:21:34.160Z,6.38
2023-11-23T16:24:01.112Z,6.38
2023-11-23T16:26:28.855Z,6.36
2023-11-23T16:29:00.612Z,6.33
2023-11-23T16:31:27.861Z,6.35
2023-11-23T16:33:57.596Z,6.38
2023-11-23T16:36:32.956Z,6.38
2023-11-23T16:39:05.644Z,6.42
2023-11-23T16:41:32.396Z,6.42
2023-11-23T16:43:58.794Z,6.40
2023-11-23T16:46:25.218Z,6.39
2023-11-23T16:48:51.677Z,6.41
2023-11-23T16:51:19.813Z,6.37
2023-11-23T16:53:46.237Z,6.39
2023-11-23T16:56:13.127Z,6.38
2023-11-23T16:58:39.901Z,6.39
2023-11-23T17:01:06.316Z,6.41
2023-11-23T17:03:32.832Z,6.42
2023-11-23T17:06:01.416Z,6.37
2023-11-23T17:08:28.991Z,6.35
2023-11-23T17:10:55.958Z,6.36
2023-11-23T17:13:24.099Z,6.35
2023-11-23T17:15:50.874Z,6.31
2023-11-23T17:18:17.436Z,6.29
2023-11-23T17:20:43.853Z,6.32
2023-11-23T17:23:11.811Z,6.32
2023-11-23T17:25:40.096Z,6.39
2023-11-23T17:28:07.484Z,6.38
2023-11-23T17:30:34.898Z,6.40
2023-11-23T17:33:01.657Z,6.44
2023-11-23T17:35:29.021Z,6.49
2023-11-23T17:37:55.641Z,6.52
2023-11-23T17:40:22.626Z,6.52
2023-11-23T17:42:49.172Z,6.50
2023-11-23T17:45:15.765Z,6.55
2023-11-23T17:47:45.090Z,6.55
2023-11-23T17:50:12.922Z,6.55
2023-11-23T17:52:39.647Z,6.56
2023-11-23T17:55:06.755Z,6.59
2023-11-23T17:57:35.544Z,6.57
2023-11-23T18:00:07.112Z,6.57
2023-11-23T18:02:34.520Z,6.62
2023-11-23T18:05:01.120Z,6.57
2023-11-23T18:07:27.476Z,6.58
2023-11-23T18:09:53.899Z,6.59
2023-11-23T18:12:20.454Z,6.61
2023-11-23T18:14:46.917Z,6.60
2023-11-23T18:17:13.320Z,6.59
2023-11-23T18:19:39.801Z,6.60
2023-11-23T18:22:06.822Z,6.62
2023-11-23T18:24:34.314Z,6.64
2023-11-23T18:27:03.128Z,6.66
2023-11-23T18:29:29.539Z,6.69
2023-11-23T18:31:56.070Z,6.71
2023-11-23T18:34:22.442Z,6.73
2023-11-23T18:36:51.022Z,6.70
2023-11-23T18:39:19.314Z,6.76
2023-11-23T18:41:46.647Z,6.76
2023-11-23T18:44:13.890Z,6.75
2023-11-23T18:46:40.412Z,6.77
2023-11-23T18:49:06.797Z,6.81
2023-11-23T18:51:33.241Z,6.81
2023-11-23T18:53:59.799Z,6.79
2023-11-23T18:56:26.124Z,6.79
2023-11-23T18:58:52.425Z,6.83
2023-11-23T19:01:19.055Z,6.85
2023-11-23T19:03:46.635Z,6.83
2023-11-23T19:06:13.143Z,6.88
2023-11-23T19:08:39.559Z,6.90
2023-11-23T19:11:06.238Z,6.96
2023-11-23T19:13:32.985Z,7.02
2023-11-23T19:15:59.683Z,7.10
2023-11-23T19:18:26.458Z,7.17
2023-11-23T19:20:53.379Z,7.29
2023-11-23T19:23:20.257Z,7.34
2023-11-23T19:25:50.373Z,7.42
2023-11-23T19:28:17.319Z,7.46
2023-11-23T19:30:44.123Z,7.48
2023-11-23T19:33:11.411Z,7.50
2023-11-23T19:35:38.019Z,7.48
2023-11-23T19:38:05.301Z,7.54
2023-11-23T19:40:32.471Z,7.61
2023-11-23T19:43:00.141Z,7.63
2023-11-23T19:45:28.070Z,7.71
2023-11-23T19:47:55.143Z,7.74
2023-11-23T19:50:22.398Z,7.75
2023-11-23T19:52:52.632Z,7.85
2023-11-23T19:55:19.004Z,7.90
2023-11-23T19:57:45.470Z,7.81
2023-11-23T20:00:12.913Z,7.86
2023-11-23T20:02:39.542Z,7.93
2023-11-23T20:05:06.531Z,7.91
2023-11-23T20:07:33.618Z,7.91
2023-11-23T20:10:00.043Z,7.96
2023-11-23T20:12:27.637Z,7.95
2023-11-23T20:14:55.390Z,7.93
2023-11-23T20:17:22.699Z,7.96
2023-11-23T20:19:49.352Z,7.96
2023-11-23T20:22:16.511Z,7.97
2023-11-23T20:24:43.261Z,7.98
2023-11-23T20:27:12.598Z,8.06
2023-11-23T20:29:39.141Z,8.08
2023-11-23T20:32:06.063Z,8.06
2023-11-23T20:34:32.659Z,8.21
2023-11-23T20:36:59.807Z,8.23
2023-11-23T20:39:27.948Z,8.28
2023-11-23T20:41:54.313Z,8.30
2023-11-23T20:44:20.646Z,8.26
2023-11-23T20:46:48.979Z,8.30
2023-11-23T20:49:15.511Z,8.30
2023-11-23T20:51:41.962Z,8.33
2023-11-23T20:54:08.515Z,8.29
2023-11-23T20:56:36.082Z,8.27
2023-11-23T20:59:05.246Z,8.27
2023-11-23T21:01:34.127Z,8.27
2023-11-23T21:04:01.429Z,8.26
2023-11-23T21:06:29.794Z,8.31
2023-11-23T21:08:56.487Z,8.26
2023-11-23T21:11:24.294Z,8.27
2023-11-23T21:13:50.737Z,8.25
2023-11-23T21:16:17.169Z,8.28
2023-11-23T21:18:43.631Z,8.33
2023-11-23T21:21:10.681Z,8.32
2023-11-23T21:23:37.732Z,8.34
2023-11-23T21:26:05.429Z,8.34
2023-11-23T21:28:32.997Z,8.36
2023-11-23T21:30:59.525Z,8.40
2023-11-23T21:33:26.130Z,8.38
2023-11-23T21:35:52.552Z,8.39
2023-11-23T21:38:18.915Z,8.37
2023-11-23T21:40:45.314Z,8.39
2023-11-23T21:43:11.670Z,8.40
2023-11-23T21:45:38.059Z,8.45
2023-11-23T21:48:04.890Z,8.41
2023-11-23T21:50:32.203Z,8.47
2023-11-23T21:52:59.927Z,8.48
2023-11-23T21:55:26.442Z,8.52
2023-11-23T21:57:52.872Z,8.59
2023-11-23T22:00:19.400Z,8.59
2023-11-23T22:02:45.920Z,8.61
2023-11-23T22:05:12.397Z,8.57
2023-11-23T22:07:38.753Z,8.55
2023-11-23T22:10:05.940Z,8.59
2023-11-23T22:12:32.348Z,8.61
2023-11-23T22:14:59.058Z,8.60
2023-11-23T22:17:26.297Z,8.61
2023-11-23T22:19:53.400Z,8.64
2023-11-23T22:22:20.681Z,8.62
2023-11-23T22:24:47.228Z,8.59
2023-11-23T22:27:13.895Z,8.57
2023-11-23T22:29:40.430Z,8.58
2023-11-23T22:32:07.499Z,8.58
2023-11-23T22:34:34.169Z,8.64
2023-11-23T22:37:00.910Z,8.62
2023-11-23T22:39:27.623Z,8.67
2023-11-23T22:41:54.205Z,8.67
2023-11-23T22:44:21.193Z,8.68
2023-11-23T22:46:47.876Z,8.71
2023-11-23T22:49:14.391Z,8.69
2023-11-23T22:51:41.652Z,8.67
2023-11-23T22:54:08.220Z,8.67
2023-11-23T22:56:34.607Z,8.70
2023-11-23T22:59:00.968Z,8.74
2023-11-23T23:01:28.893Z,8.71
2023-11-23T23:03:55.393Z,8.75
2023-11-23T23:06:22.835Z,8.77
2023-11-23T23:08:49.782Z,8.79
2023-11-23T23:11:18.573Z,8.86
2023-11-23T23:13:44.895Z,8.84
2023-11-23T23:16:11.361Z,8.88
2023-11-23T23:18:37.972Z,8.87
2023-11-23T23:21:04.627Z,8.87
2023-11-23T23:23:30.975Z,8.93
2023-11-23T23:25:57.368Z,8.88
2023-11-23T23:28:29.856Z,8.93
2023-11-23T23:30:58.994Z,8.97
2023-11-23T23:33:25.528Z,8.95
2023-11-23T23:35:53.000Z,8.91
2023-11-23T23:38:19.498Z,8.96
2023-11-23T23:40:50.394Z,8.98
2023-11-23T23:43:18.179Z,9.00
2023-11-23T23:45:44.810Z,9.03
2023-11-23T23:48:11.228Z,9.03
2023-11-23T23:50:37.698Z,9.02
2023-11-23T23:53:04.051Z,9.09
2023-11-23T23:55:30.488Z,9.05
2023-11-23T23:57:58.008Z,9.02
